sensor_id;sensor_type;location;lat;lon;timestamp;P1;durP1;ratioP1;P2;durP2;ratioP2
8871;SDS011;4472;52.092;9.820;2022-07-03T14:08:21;1.33;;;1.23;;
8871;SDS011;4472;52.092;9.820;2022-07-03T14:11:50;2.40;;;1.48;;
8871;SDS011;4472;52.092;9.820;2022-07-03T14:15:18;2.08;;;1.17;;
8871;SDS011;4472;52.092;9.820;2022-07-03T14:18:22;1.55;;;1.10;;
8871;SDS011;4472;52.092;9.820;2022-07-03T14:21:31;1.35;;;1.20;;
8871;SDS011;4472;52.092;9.820;2022-07-03T14:24:29;3.47;;;1.30;;
8871;SDS011;4472;52.092;9.820;2022-07-03T14:27:16;1.17;;;1.10;;
8871;SDS011;4472;52.092;9.820;2022-07-03T14:30:21;1.50;;;1.30;;
8871;SDS011;4472;52.092;9.820;2022-07-03T14:33:26;1.30;;;1.20;;
8871;SDS011;4472;52.092;9.820;2022-07-03T14:36:13;1.48;;;1.38;;
8871;SDS011;4472;52.092;9.820;2022-07-03T14:39:00;1.48;;;1.38;;
8871;SDS011;4472;52.092;9.820;2022-07-03T14:41:49;3.47;;;1.20;;
8871;SDS011;4472;52.092;9.820;2022-07-03T14:44:36;3.15;;;1.20;;
8871;SDS011;4472;52.092;9.820;2022-07-03T14:47:23;1.48;;;1.30;;
8871;SDS011;4472;52.092;9.820;2022-07-03T14:50:10;3.22;;;1.10;;
8871;SDS011;4472;52.092;9.820;2022-07-03T14:52:58;1.45;;;1.10;;
8871;SDS011;4472;52.092;9.820;2022-07-03T14:55:48;2.05;;;1.30;;
8871;SDS011;4472;52.092;9.820;2022-07-03T14:58:39;1.70;;;1.25;;
8871;SDS011;4472;52.092;9.820;2022-07-03T15:01:29;2.10;;;1.20;;
8871;SDS011;4472;52.092;9.820;2022-07-03T15:04:52;1.25;;;1.10;;
8871;SDS011;4472;52.092;9.820;2022-07-03T15:14:08;2.10;;;1.17;;
8871;SDS011;4472;52.092;9.820;2022-07-03T15:16:57;1.92;;;1.75;;
8871;SDS011;4472;52.092;9.820;2022-07-03T15:19:46;1.77;;;1.50;;
8871;SDS011;4472;52.092;9.820;2022-07-03T15:22:35;1.95;;;1.60;;
8871;SDS011;4472;52.092;9.820;2022-07-03T15:25:26;1.42;;;1.02;;
8871;SDS011;4472;52.092;9.820;2022-07-03T15:28:15;2.65;;;1.27;;
8871;SDS011;4472;52.092;9.820;2022-07-03T15:31:05;2.75;;;1.30;;
8871;SDS011;4472;52.092;9.820;2022-07-03T15:33:52;1.65;;;1.35;;
8871;SDS011;4472;52.092;9.820;2022-07-03T15:36:42;2.25;;;1.33;;
8871;SDS011;4472;52.092;9.820;2022-07-03T15:39:33;1.30;;;1.20;;
8871;SDS011;4472;52.092;9.820;2022-07-03T15:42:29;1.60;;;1.50;;
8871;SDS011;4472;52.092;9.820;2022-07-03T15:45:33;1.27;;;1.17;;
8871;SDS011;4472;52.092;9.820;2022-07-03T15:48:31;1.73;;;1.50;;
8871;SDS011;4472;52.092;9.820;2022-07-03T15:51:29;2.92;;;2.30;;
8871;SDS011;4472;52.092;9.820;2022-07-03T15:54:28;7.20;;;4.10;;
8871;SDS011;4472;52.092;9.820;2022-07-03T15:57:24;3.45;;;3.15;;
8871;SDS011;4472;52.092;9.820;2022-07-03T16:00:13;1.88;;;1.30;;
8871;SDS011;4472;52.092;9.820;2022-07-03T16:03:05;1.85;;;1.30;;
8871;SDS011;4472;52.092;9.820;2022-07-03T16:06:02;1.60;;;1.42;;
8871;SDS011;4472;52.092;9.820;2022-07-03T16:08:50;1.90;;;1.55;;
8871;SDS011;4472;52.092;9.820;2022-07-03T16:11:37;2.35;;;1.80;;
8871;SDS011;4472;52.092;9.820;2022-07-03T16:14:29;2.05;;;1.45;;
8871;SDS011;4472;52.092;9.820;2022-07-03T16:17:21;2.20;;;1.27;;
8871;SDS011;4472;52.092;9.820;2022-07-03T16:20:09;1.23;;;1.20;;
8871;SDS011;4472;52.092;9.820;2022-07-03T16:22:59;3.03;;;1.42;;
8871;SDS011;4472;52.092;9.820;2022-07-03T16:25:48;1.65;;;1.10;;
8871;SDS011;4472;52.092;9.820;2022-07-03T16:28:35;10.90;;;1.35;;
8871;SDS011;4472;52.092;9.820;2022-07-03T16:31:23;1.38;;;1.20;;
8871;SDS011;4472;52.092;9.820;2022-07-03T16:34:14;1.85;;;1.33;;
8871;SDS011;4472;52.092;9.820;2022-07-03T16:37:09;1.60;;;1.50;;
8871;SDS011;4472;52.092;9.820;2022-07-03T16:40:01;5.22;;;4.72;;
8871;SDS011;4472;52.092;9.820;2022-07-03T16:42:51;1.80;;;1.70;;
8871;SDS011;4472;52.092;9.820;2022-07-03T16:45:40;1.70;;;1.23;;
8871;SDS011;4472;52.092;9.820;2022-07-03T16:48:29;2.63;;;1.30;;
8871;SDS011;4472;52.092;9.820;2022-07-03T16:51:19;4.10;;;3.30;;
8871;SDS011;4472;52.092;9.820;2022-07-03T16:54:09;1.75;;;1.40;;
8871;SDS011;4472;52.092;9.820;2022-07-03T16:57:01;1.88;;;1.77;;
8871;SDS011;4472;52.092;9.820;2022-07-03T16:59:50;1.50;;;1.40;;
8871;SDS011;4472;52.092;9.820;2022-07-03T17:02:38;1.50;;;1.40;;
8871;SDS011;4472;52.092;9.820;2022-07-03T17:05:28;2.72;;;1.50;;
8871;SDS011;4472;52.092;9.820;2022-07-03T17:08:15;3.03;;;1.60;;
8871;SDS011;4472;52.092;9.820;2022-07-03T17:11:03;1.48;;;1.40;;
8871;SDS011;4472;52.092;9.820;2022-07-03T17:13:52;1.50;;;1.40;;
8871;SDS011;4472;52.092;9.820;2022-07-03T17:16:42;1.45;;;1.35;;
8871;SDS011;4472;52.092;9.820;2022-07-03T17:19:31;1.85;;;1.60;;
8871;SDS011;4472;52.092;9.820;2022-07-03T17:22:23;1.50;;;1.40;;
8871;SDS011;4472;52.092;9.820;2022-07-03T17:25:17;2.20;;;1.42;;
8871;SDS011;4472;52.092;9.820;2022-07-03T17:28:09;2.60;;;1.45;;
8871;SDS011;4472;52.092;9.820;2022-07-03T17:30:59;2.20;;;1.25;;
8871;SDS011;4472;52.092;9.820;2022-07-03T17:33:50;2.90;;;1.67;;
8871;SDS011;4472;52.092;9.820;2022-07-03T17:36:39;1.67;;;1.53;;
8871;SDS011;4472;52.092;9.820;2022-07-03T17:39:29;5.77;;;1.60;;
8871;SDS011;4472;52.092;9.820;2022-07-03T17:42:16;1.90;;;1.40;;
8871;SDS011;4472;52.092;9.820;2022-07-03T17:45:10;3.13;;;1.67;;
8871;SDS011;4472;52.092;9.820;2022-07-03T17:47:59;1.60;;;1.40;;
8871;SDS011;4472;52.092;9.820;2022-07-03T17:50:48;2.37;;;1.40;;
8871;SDS011;4472;52.092;9.820;2022-07-03T17:53:36;1.97;;;1.57;;
8871;SDS011;4472;52.092;9.820;2022-07-03T17:56:27;1.47;;;1.40;;
8871;SDS011;4472;52.092;9.820;2022-07-03T17:59:15;3.13;;;1.50;;
8871;SDS011;4472;52.092;9.820;2022-07-03T18:02:04;3.70;;;1.70;;
8871;SDS011;4472;52.092;9.820;2022-07-03T18:04:53;2.00;;;1.90;;
8871;SDS011;4472;52.092;9.820;2022-07-03T18:07:45;2.60;;;1.63;;
8871;SDS011;4472;52.092;9.820;2022-07-03T18:10:40;3.10;;;1.67;;
8871;SDS011;4472;52.092;9.820;2022-07-03T18:13:33;1.73;;;1.63;;
8871;SDS011;4472;52.092;9.820;2022-07-03T18:16:23;3.00;;;1.87;;
8871;SDS011;4472;52.092;9.820;2022-07-03T18:19:15;4.30;;;1.87;;
8871;SDS011;4472;52.092;9.820;2022-07-03T18:22:05;4.67;;;1.83;;
8871;SDS011;4472;52.092;9.820;2022-07-03T18:24:52;3.07;;;1.87;;
8871;SDS011;4472;52.092;9.820;2022-07-03T18:27:43;4.73;;;1.90;;
8871;SDS011;4472;52.092;9.820;2022-07-03T18:30:33;3.87;;;2.10;;
8871;SDS011;4472;52.092;9.820;2022-07-03T18:33:21;2.97;;;2.10;;
8871;SDS011;4472;52.092;9.820;2022-07-03T18:36:10;2.30;;;1.80;;
8871;SDS011;4472;52.092;9.820;2022-07-03T18:39:02;4.63;;;1.70;;
8871;SDS011;4472;52.092;9.820;2022-07-03T18:41:51;3.90;;;1.97;;
8871;SDS011;4472;52.092;9.820;2022-07-03T18:44:40;2.17;;;1.80;;
8871;SDS011;4472;52.092;9.820;2022-07-03T18:47:33;4.23;;;1.80;;
8871;SDS011;4472;52.092;9.820;2022-07-03T18:50:29;4.30;;;1.70;;
8871;SDS011;4472;52.092;9.820;2022-07-03T18:53:27;5.80;;;1.90;;
8871;SDS011;4472;52.092;9.820;2022-07-03T18:56:28;5.60;;;1.90;;
8871;SDS011;4472;52.092;9.820;2022-07-03T18:59:25;3.13;;;1.97;;
8871;SDS011;4472;52.092;9.820;2022-07-03T19:02:17;4.60;;;2.20;;
8871;SDS011;4472;52.092;9.820;2022-07-03T19:05:07;4.60;;;2.00;;
8871;SDS011;4472;52.092;9.820;2022-07-03T19:07:57;5.47;;;2.40;;
8871;SDS011;4472;52.092;9.820;2022-07-03T19:10:57;5.50;;;2.70;;
8871;SDS011;4472;52.092;9.820;2022-07-03T19:13:52;5.20;;;2.70;;
8871;SDS011;4472;52.092;9.820;2022-07-03T19:16:50;15.73;;;3.90;;
8871;SDS011;4472;52.092;9.820;2022-07-03T19:19:47;17.60;;;4.17;;
8871;SDS011;4472;52.092;9.820;2022-07-03T19:22:40;9.67;;;3.60;;
8871;SDS011;4472;52.092;9.820;2022-07-03T19:25:28;2.73;;;2.53;;
8871;SDS011;4472;52.092;9.820;2022-07-03T19:28:15;4.10;;;2.90;;
8871;SDS011;4472;52.092;9.820;2022-07-03T19:31:07;6.47;;;3.87;;
8871;SDS011;4472;52.092;9.820;2022-07-03T19:33:55;5.40;;;3.40;;
8871;SDS011;4472;52.092;9.820;2022-07-03T19:36:43;8.07;;;4.47;;
8871;SDS011;4472;52.092;9.820;2022-07-03T19:39:31;8.43;;;4.70;;
8871;SDS011;4472;52.092;9.820;2022-07-03T19:42:18;5.73;;;4.37;;
8871;SDS011;4472;52.092;9.820;2022-07-03T19:45:06;8.63;;;4.97;;
8871;SDS011;4472;52.092;9.820;2022-07-03T19:47:56;4.63;;;4.03;;
8871;SDS011;4472;52.092;9.820;2022-07-03T19:50:43;7.23;;;4.50;;
8871;SDS011;4472;52.092;9.820;2022-07-03T19:53:31;5.47;;;5.00;;
8871;SDS011;4472;52.092;9.820;2022-07-03T19:56:18;9.17;;;5.33;;
8871;SDS011;4472;52.092;9.820;2022-07-03T19:59:05;6.83;;;5.23;;
8871;SDS011;4472;52.092;9.820;2022-07-03T20:01:53;6.50;;;4.63;;
8871;SDS011;4472;52.092;9.820;2022-07-03T20:04:41;6.37;;;5.67;;
8871;SDS011;4472;52.092;9.820;2022-07-03T20:07:28;5.77;;;4.70;;
8871;SDS011;4472;52.092;9.820;2022-07-03T20:10:16;6.33;;;4.50;;
8871;SDS011;4472;52.092;9.820;2022-07-03T20:13:03;5.50;;;4.93;;
8871;SDS011;4472;52.092;9.820;2022-07-03T20:15:50;6.23;;;4.90;;
8871;SDS011;4472;52.092;9.820;2022-07-03T20:18:37;4.73;;;4.23;;
8871;SDS011;4472;52.092;9.820;2022-07-03T20:21:26;6.80;;;5.10;;
8871;SDS011;4472;52.092;9.820;2022-07-03T20:24:13;6.63;;;4.70;;
8871;SDS011;4472;52.092;9.820;2022-07-03T20:27:20;5.57;;;3.87;;
8871;SDS011;4472;52.092;9.820;2022-07-03T20:30:08;3.37;;;3.07;;
8871;SDS011;4472;52.092;9.820;2022-07-03T20:32:56;3.53;;;2.53;;
8871;SDS011;4472;52.092;9.820;2022-07-03T20:35:44;3.27;;;2.27;;
8871;SDS011;4472;52.092;9.820;2022-07-03T20:38:32;3.37;;;1.80;;
8871;SDS011;4472;52.092;9.820;2022-07-03T20:41:19;6.23;;;2.20;;
8871;SDS011;4472;52.092;9.820;2022-07-03T20:44:07;5.83;;;1.87;;
8871;SDS011;4472;52.092;9.820;2022-07-03T20:46:55;3.73;;;1.80;;
8871;SDS011;4472;52.092;9.820;2022-07-03T20:49:42;2.27;;;1.90;;
8871;SDS011;4472;52.092;9.820;2022-07-03T20:52:30;2.53;;;2.00;;
8871;SDS011;4472;52.092;9.820;2022-07-03T20:55:19;5.00;;;2.17;;
8871;SDS011;4472;52.092;9.820;2022-07-03T20:58:06;2.53;;;2.13;;
8871;SDS011;4472;52.092;9.820;2022-07-03T21:00:53;2.20;;;2.00;;
8871;SDS011;4472;52.092;9.820;2022-07-03T21:03:40;3.83;;;2.40;;
8871;SDS011;4472;52.092;9.820;2022-07-03T21:06:28;3.33;;;2.20;;
8871;SDS011;4472;52.092;9.820;2022-07-03T21:09:15;2.63;;;2.10;;
8871;SDS011;4472;52.092;9.820;2022-07-03T21:12:04;4.53;;;2.40;;
8871;SDS011;4472;52.092;9.820;2022-07-03T21:14:52;5.43;;;2.33;;
8871;SDS011;4472;52.092;9.820;2022-07-03T21:17:39;2.33;;;2.10;;
8871;SDS011;4472;52.092;9.820;2022-07-03T21:20:26;6.50;;;2.40;;
8871;SDS011;4472;52.092;9.820;2022-07-03T21:23:13;4.63;;;2.40;;
